sensor_id;sensor_type;location;lat;lon;timestamp;temperature;humidity
43087;DHT22;28708;52.224;6.924;2022-07-06T00:01:39;14.60;99.90
43087;DHT22;28708;52.224;6.924;2022-07-06T00:04:05;14.60;99.90
43087;DHT22;28708;52.224;6.924;2022-07-06T00:06:31;14.70;99.90
43087;DHT22;28708;52.224;6.924;2022-07-06T00:08:57;14.60;99.90
43087;DHT22;28708;52.224;6.924;2022-07-06T00:11:23;14.60;99.90
43087;DHT22;28708;52.224;6.924;2022-07-06T00:13:50;14.50;99.90
43087;DHT22;28708;52.224;6.924;2022-07-06T00:16:16;14.40;99.90
43087;DHT22;28708;52.224;6.924;2022-07-06T00:18:42;14.40;99.90
43087;DHT22;28708;52.224;6.924;2022-07-06T00:21:08;14.30;99.90
43087;DHT22;28708;52.224;6.924;2022-07-06T00:23:34;14.30;99.90
43087;DHT22;28708;52.224;6.924;2022-07-06T00:26:00;14.30;99.90
43087;DHT22;28708;52.224;6.924;2022-07-06T00:28:26;14.30;99.90
43087;DHT22;28708;52.224;6.924;2022-07-06T00:30:52;14.30;99.90
43087;DHT22;28708;52.224;6.924;2022-07-06T00:33:19;14.30;99.90
43087;DHT22;28708;52.224;6.924;2022-07-06T00:35:44;14.20;99.90
43087;DHT22;28708;52.224;6.924;2022-07-06T00:38:10;14.20;99.90
43087;DHT22;28708;52.224;6.924;2022-07-06T00:40:36;14.10;99.90
43087;DHT22;28708;52.224;6.924;2022-07-06T00:43:02;14.10;99.90
43087;DHT22;28708;52.224;6.924;2022-07-06T00:45:28;14.10;99.90
43087;DHT22;28708;52.224;6.924;2022-07-06T00:47:54;14.10;99.90
43087;DHT22;28708;52.224;6.924;2022-07-06T00:50:21;14.10;99.90
43087;DHT22;28708;52.224;6.924;2022-07-06T00:52:56;14.00;99.90
43087;DHT22;28708;52.224;6.924;2022-07-06T00:55:26;13.90;99.90
43087;DHT22;28708;52.224;6.924;2022-07-06T00:57:53;13.80;99.90
43087;DHT22;28708;52.224;6.924;2022-07-06T01:00:21;13.80;99.90
43087;DHT22;28708;52.224;6.924;2022-07-06T01:02:48;13.90;99.90
43087;DHT22;28708;52.224;6.924;2022-07-06T01:05:15;13.90;99.90
43087;DHT22;28708;52.224;6.924;2022-07-06T01:07:43;13.90;99.90
43087;DHT22;28708;52.224;6.924;2022-07-06T01:10:11;13.90;99.90
43087;DHT22;28708;52.224;6.924;2022-07-06T01:12:39;13.80;99.90
43087;DHT22;28708;52.224;6.924;2022-07-06T01:15:07;13.70;99.90
43087;DHT22;28708;52.224;6.924;2022-07-06T01:17:33;13.70;99.90
43087;DHT22;28708;52.224;6.924;2022-07-06T01:22:36;13.80;99.90
43087;DHT22;28708;52.224;6.924;2022-07-06T01:25:04;13.90;99.90
43087;DHT22;28708;52.224;6.924;2022-07-06T01:27:30;14.00;99.90
43087;DHT22;28708;52.224;6.924;2022-07-06T01:29:56;14.20;99.90
43087;DHT22;28708;52.224;6.924;2022-07-06T01:32:22;14.10;99.90
43087;DHT22;28708;52.224;6.924;2022-07-06T01:34:48;14.00;99.90
43087;DHT22;28708;52.224;6.924;2022-07-06T01:37:13;14.00;99.90
43087;DHT22;28708;52.224;6.924;2022-07-06T01:39:39;14.00;99.90
43087;DHT22;28708;52.224;6.924;2022-07-06T01:42:05;14.00;99.90
43087;DHT22;28708;52.224;6.924;2022-07-06T01:44:31;13.90;99.90
43087;DHT22;28708;52.224;6.924;2022-07-06T01:46:59;13.90;99.90
43087;DHT22;28708;52.224;6.924;2022-07-06T01:49:25;13.90;99.90
43087;DHT22;28708;52.224;6.924;2022-07-06T01:51:51;13.80;99.90
43087;DHT22;28708;52.224;6.924;2022-07-06T01:54:16;13.80;99.90
43087;DHT22;28708;52.224;6.924;2022-07-06T01:56:42;13.80;99.90
43087;DHT22;28708;52.224;6.924;2022-07-06T01:59:08;13.80;99.90
43087;DHT22;28708;52.224;6.924;2022-07-06T02:01:36;13.80;99.90
43087;DHT22;28708;52.224;6.924;2022-07-06T02:04:02;13.70;99.90
43087;DHT22;28708;52.224;6.924;2022-07-06T02:06:28;13.70;99.90
43087;DHT22;28708;52.224;6.924;2022-07-06T02:08:54;13.50;99.90
43087;DHT22;28708;52.224;6.924;2022-07-06T02:11:19;13.60;99.90
43087;DHT22;28708;52.224;6.924;2022-07-06T02:13:45;13.60;99.90
43087;DHT22;28708;52.224;6.924;2022-07-06T02:16:12;13.60;99.90
43087;DHT22;28708;52.224;6.924;2022-07-06T02:18:38;13.60;99.90
43087;DHT22;28708;52.224;6.924;2022-07-06T02:21:05;13.60;99.90
43087;DHT22;28708;52.224;6.924;2022-07-06T02:23:31;13.60;99.90
43087;DHT22;28708;52.224;6.924;2022-07-06T02:25:57;13.50;99.90
43087;DHT22;28708;52.224;6.924;2022-07-06T02:28:24;13.60;99.90
43087;DHT22;28708;52.224;6.924;2022-07-06T02:30:50;13.70;99.90
43087;DHT22;28708;52.224;6.924;2022-07-06T02:33:16;13.70;99.90
43087;DHT22;28708;52.224;6.924;2022-07-06T02:35:42;13.70;99.90
43087;DHT22;28708;52.224;6.924;2022-07-06T02:38:10;13.80;99.90
43087;DHT22;28708;52.224;6.924;2022-07-06T02:40:36;13.80;99.90
43087;DHT22;28708;52.224;6.924;2022-07-06T02:43:04;13.80;99.90
43087;DHT22;28708;52.224;6.924;2022-07-06T02:45:31;13.90;99.90
43087;DHT22;28708;52.224;6.924;2022-07-06T02:47:57;13.80;99.90
43087;DHT22;28708;52.224;6.924;2022-07-06T02:50:24;13.80;99.90
43087;DHT22;28708;52.224;6.924;2022-07-06T02:52:51;13.70;99.90
43087;DHT22;28708;52.224;6.924;2022-07-06T02:55:17;13.80;99.90
43087;DHT22;28708;52.224;6.924;2022-07-06T02:57:43;13.90;99.90
43087;DHT22;28708;52.224;6.924;2022-07-06T03:00:11;13.90;99.90
43087;DHT22;28708;52.224;6.924;2022-07-06T03:02:38;13.90;99.90
43087;DHT22;28708;52.224;6.924;2022-07-06T03:05:05;13.90;99.90
43087;DHT22;28708;52.224;6.924;2022-07-06T03:07:31;13.90;99.90
43087;DHT22;28708;52.224;6.924;2022-07-06T03:09:58;14.00;99.90
43087;DHT22;28708;52.224;6.924;2022-07-06T03:12:24;14.00;99.90
43087;DHT22;28708;52.224;6.924;2022-07-06T03:14:50;14.10;99.90
43087;DHT22;28708;52.224;6.924;2022-07-06T03:17:16;14.10;99.90
43087;DHT22;28708;52.224;6.924;2022-07-06T03:19:42;14.10;99.90
43087;DHT22;28708;52.224;6.924;2022-07-06T03:22:08;14.10;99.90
43087;DHT22;28708;52.224;6.924;2022-07-06T03:24:34;14.10;99.90
43087;DHT22;28708;52.224;6.924;2022-07-06T03:27:00;14.00;99.90
43087;DHT22;28708;52.224;6.924;2022-07-06T03:29:26;14.00;99.90
43087;DHT22;28708;52.224;6.924;2022-07-06T03:31:52;14.00;99.90
43087;DHT22;28708;52.224;6.924;2022-07-06T03:34:18;14.00;99.90
43087;DHT22;28708;52.224;6.924;2022-07-06T03:36:44;14.00;99.90
43087;DHT22;28708;52.224;6.924;2022-07-06T03:39:10;14.00;99.90
43087;DHT22;28708;52.224;6.924;2022-07-06T03:41:37;14.00;99.90
43087;DHT22;28708;52.224;6.924;2022-07-06T03:44:04;13.90;99.90
43087;DHT22;28708;52.224;6.924;2022-07-06T03:46:30;14.00;99.90
43087;DHT22;28708;52.224;6.924;2022-07-06T03:48:57;13.90;99.90
43087;DHT22;28708;52.224;6.924;2022-07-06T03:51:23;13.90;99.90
43087;DHT22;28708;52.224;6.924;2022-07-06T03:53:49;13.90;99.90
43087;DHT22;28708;52.224;6.924;2022-07-06T03:56:16;13.90;99.90
43087;DHT22;28708;52.224;6.924;2022-07-06T03:58:57;13.90;99.90
43087;DHT22;28708;52.224;6.924;2022-07-06T04:01:23;13.90;99.90
43087;DHT22;28708;52.224;6.924;2022-07-06T04:03:49;13.90;99.90
43087;DHT22;28708;52.224;6.924;2022-07-06T04:06:16;14.00;99.90
43087;DHT22;28708;52.224;6.924;2022-07-06T04:08:42;14.10;99.90
43087;DHT22;28708;52.224;6.924;2022-07-06T04:11:08;14.00;99.90
43087;DHT22;28708;52.224;6.924;2022-07-06T04:13:35;14.00;99.90
43087;DHT22;28708;52.224;6.924;2022-07-06T04:16:01;14.10;99.90
43087;DHT22;28708;52.224;6.924;2022-07-06T04:18:28;14.10;99.90
43087;DHT22;28708;52.224;6.924;2022-07-06T04:20:55;14.10;99.90
43087;DHT22;28708;52.224;6.924;2022-07-06T04:23:23;14.10;99.90
43087;DHT22;28708;52.224;6.924;2022-07-06T04:25:51;14.10;99.90
43087;DHT22;28708;52.224;6.924;2022-07-06T04:28:17;14.00;99.90
43087;DHT22;28708;52.224;6.924;2022-07-06T04:30:43;14.20;99.90
43087;DHT22;28708;52.224;6.924;2022-07-06T04:33:13;14.30;99.90
43087;DHT22;28708;52.224;6.924;2022-07-06T04:35:40;14.40;99.90
43087;DHT22;28708;52.224;6.924;2022-07-06T04:38:06;14.50;99.90
43087;DHT22;28708;52.224;6.924;2022-07-06T04:40:32;14.50;99.90
43087;DHT22;28708;52.224;6.924;2022-07-06T04:43:03;14.40;99.90
43087;DHT22;28708;52.224;6.924;2022-07-06T04:45:29;14.30;99.90
43087;DHT22;28708;52.224;6.924;2022-07-06T04:47:55;14.20;99.90
43087;DHT22;28708;52.224;6.924;2022-07-06T04:50:22;14.30;99.90
43087;DHT22;28708;52.224;6.924;2022-07-06T04:52:48;14.40;99.90
43087;DHT22;28708;52.224;6.924;2022-07-06T04:55:14;14.50;99.90
43087;DHT22;28708;52.224;6.924;2022-07-06T04:57:41;14.60;99.90
43087;DHT22;28708;52.224;6.924;2022-07-06T05:00:08;14.60;99.90
43087;DHT22;28708;52.224;6.924;2022-07-06T05:02:34;14.70;99.90
43087;DHT22;28708;52.224;6.924;2022-07-06T05:05:00;14.50;99.90
43087;DHT22;28708;52.224;6.924;2022-07-06T05:07:26;14.40;99.90
43087;DHT22;28708;52.224;6.924;2022-07-06T05:09:55;14.50;99.90
43087;DHT22;28708;52.224;6.924;2022-07-06T05:12:21;14.50;99.90
43087;DHT22;28708;52.224;6.924;2022-07-06T05:14:47;14.60;99.90
43087;DHT22;28708;52.224;6.924;2022-07-06T05:17:13;14.60;99.90
43087;DHT22;28708;52.224;6.924;2022-07-06T05:19:39;14.40;99.90
43087;DHT22;28708;52.224;6.924;2022-07-06T05:22:05;14.30;99.90
43087;DHT22;28708;52.224;6.924;2022-07-06T05:24:32;14.30;99.90
43087;DHT22;28708;52.224;6.924;2022-07-06T05:26:59;14.40;99.90
43087;DHT22;28708;52.224;6.924;2022-07-06T05:29:26;14.50;99.90
43087;DHT22;28708;52.224;6.924;2022-07-06T05:31:52;14.50;99.90
43087;DHT22;28708;52.224;6.924;2022-07-06T05:34:18;14.60;99.90
43087;DHT22;28708;52.224;6.924;2022-07-06T05:36:45;14.60;99.90
43087;DHT22;28708;52.224;6.924;2022-07-06T05:39:11;14.50;99.90
43087;DHT22;28708;52.224;6.924;2022-07-06T05:41:37;14.60;99.90
43087;DHT22;28708;52.224;6.924;2022-07-06T05:44:03;14.50;99.90
43087;DHT22;28708;52.224;6.924;2022-07-06T05:46:29;14.50;99.90
43087;DHT22;28708;52.224;6.924;2022-07-06T05:48:55;14.50;99.90
43087;DHT22;28708;52.224;6.924;2022-07-06T05:51:40;14.60;99.90
43087;DHT22;28708;52.224;6.924;2022-07-06T05:54:06;14.70;99.90
43087;DHT22;28708;52.224;6.924;2022-07-06T05:56:32;14.70;99.90
43087;DHT22;28708;52.224;6.924;2022-07-06T05:58:59;14.70;99.90
43087;DHT22;28708;52.224;6.924;2022-07-06T06:01:25;14.60;99.90
43087;DHT22;28708;52.224;6.924;2022-07-06T06:04:01;14.70;99.90
43087;DHT22;28708;52.224;6.924;2022-07-06T06:06:27;14.70;99.90
43087;DHT22;28708;52.224;6.924;2022-07-06T06:08:56;14.70;99.90
43087;DHT22;28708;52.224;6.924;2022-07-06T06:11:22;14.80;99.90
43087;DHT22;28708;52.224;6.924;2022-07-06T06:13:48;14.80;99.90
43087;DHT22;28708;52.224;6.924;2022-07-06T06:16:14;14.90;99.90
43087;DHT22;28708;52.224;6.924;2022-07-06T06:18:41;15.10;99.90
43087;DHT22;28708;52.224;6.924;2022-07-06T06:21:07;15.20;99.90
43087;DHT22;28708;52.224;6.924;2022-07-06T06:23:33;15.40;99.90
43087;DHT22;28708;52.224;6.924;2022-07-06T06:25:59;15.50;99.90
43087;DHT22;28708;52.224;6.924;2022-07-06T06:28:25;15.60;99.90
43087;DHT22;28708;52.224;6.924;2022-07-06T06:30:51;15.50;99.90
43087;DHT22;28708;52.224;6.924;2022-07-06T06:33:18;15.60;99.90
43087;DHT22;28708;52.224;6.924;2022-07-06T06:35:50;15.70;99.90
43087;DHT22;28708;52.224;6.924;2022-07-06T06:38:17;15.90;99.90
43087;DHT22;28708;52.224;6.924;2022-07-06T06:40:43;15.90;99.90
43087;DHT22;28708;52.224;6.924;2022-07-06T06:43:09;16.20;99.90
43087;DHT22;28708;52.224;6.924;2022-07-06T06:45:43;16.40;99.90
43087;DHT22;28708;52.224;6.924;2022-07-06T06:48:10;16.40;99.90
43087;DHT22;28708;52.224;6.924;2022-07-06T06:50:36;16.50;99.90
43087;DHT22;28708;52.224;6.924;2022-07-06T06:53:02;16.40;99.90
43087;DHT22;28708;52.224;6.924;2022-07-06T06:55:28;16.40;99.90
43087;DHT22;28708;52.224;6.924;2022-07-06T06:57:54;16.30;99.90
43087;DHT22;28708;52.224;6.924;2022-07-06T07:00:19;16.50;99.90
43087;DHT22;28708;52.224;6.924;2022-07-06T07:02:45;16.60;99.90
43087;DHT22;28708;52.224;6.924;2022-07-06T07:05:12;16.80;99.90
43087;DHT22;28708;52.224;6.924;2022-07-06T07:07:38;17.00;99.90
43087;DHT22;28708;52.224;6.924;2022-07-06T07:10:05;17.10;99.90
43087;DHT22;28708;52.224;6.924;2022-07-06T07:12:33;16.90;99.90
43087;DHT22;28708;52.224;6.924;2022-07-06T07:15:00;16.90;99.90
43087;DHT22;28708;52.224;6.924;2022-07-06T07:17:26;17.00;99.90
43087;DHT22;28708;52.224;6.924;2022-07-06T07:19:52;16.90;99.90
43087;DHT22;28708;52.224;6.924;2022-07-06T07:22:18;16.80;99.90
43087;DHT22;28708;52.224;6.924;2022-07-06T07:24:44;16.90;99.90
43087;DHT22;28708;52.224;6.924;2022-07-06T07:27:09;17.20;99.90
43087;DHT22;28708;52.224;6.924;2022-07-06T07:29:35;17.10;99.90
43087;DHT22;28708;52.224;6.924;2022-07-06T07:32:01;17.20;99.90
43087;DHT22;28708;52.224;6.924;2022-07-06T07:34:27;17.00;99.90
43087;DHT22;28708;52.224;6.924;2022-07-06T07:36:53;17.20;99.90
43087;DHT22;28708;52.224;6.924;2022-07-06T07:39:18;17.50;99.90
43087;DHT22;28708;52.224;6.924;2022-07-06T07:41:44;17.50;99.90
43087;DHT22;28708;52.224;6.924;2022-07-06T07:44:10;17.60;99.90
43087;DHT22;28708;52.224;6.924;2022-07-06T07:46:36;17.60;99.90
43087;DHT22;28708;52.224;6.924;2022-07-06T07:49:02;17.80;99.90
43087;DHT22;28708;52.224;6.924;2022-07-06T07:51:30;17.90;99.90
43087;DHT22;28708;52.224;6.924;2022-07-06T07:53:55;18.00;99.90
43087;DHT22;28708;52.224;6.924;2022-07-06T07:56:21;18.30;99.90
43087;DHT22;28708;52.224;6.924;2022-07-06T07:58:47;18.00;99.90
43087;DHT22;28708;52.224;6.924;2022-07-06T08:01:16;17.80;99.90
43087;DHT22;28708;52.224;6.924;2022-07-06T08:03:42;17.70;99.90
43087;DHT22;28708;52.224;6.924;2022-07-06T08:06:08;17.60;99.90
43087;DHT22;28708;52.224;6.924;2022-07-06T08:08:34;17.40;99.90
43087;DHT22;28708;52.224;6.924;2022-07-06T08:11:00;17.30;99.90
43087;DHT22;28708;52.224;6.924;2022-07-06T08:13:26;17.20;99.90
43087;DHT22;28708;52.224;6.924;2022-07-06T08:15:51;17.10;99.90
43087;DHT22;28708;52.224;6.924;2022-07-06T08:18:17;17.00;99.90
43087;DHT22;28708;52.224;6.924;2022-07-06T08:20:43;17.00;99.90
43087;DHT22;28708;52.224;6.924;2022-07-06T08:23:09;17.00;99.90
43087;DHT22;28708;52.224;6.924;2022-07-06T08:25:35;17.10;99.90
43087;DHT22;28708;52.224;6.924;2022-07-06T08:28:01;17.30;99.90
43087;DHT22;28708;52.224;6.924;2022-07-06T08:30:26;17.90;99.90
43087;DHT22;28708;52.224;6.924;2022-07-06T08:32:52;19.60;99.90
43087;DHT22;28708;52.224;6.924;2022-07-06T08:35:18;21.00;99.90
43087;DHT22;28708;52.224;6.924;2022-07-06T08:37:44;22.30;99.90
43087;DHT22;28708;52.224;6.924;2022-07-06T08:40:11;23.30;99.90
43087;DHT22;28708;52.224;6.924;2022-07-06T08:42:37;24.30;95.80
43087;DHT22;28708;52.224;6.924;2022-07-06T08:45:05;22.70;95.60
43087;DHT22;28708;52.224;6.924;2022-07-06T08:47:32;21.60;99.20
43087;DHT22;28708;52.224;6.924;2022-07-06T08:49:58;20.80;99.90
43087;DHT22;28708;52.224;6.924;2022-07-06T08:52:24;20.00;99.90
43087;DHT22;28708;52.224;6.924;2022-07-06T08:54:51;19.30;99.90
43087;DHT22;28708;52.224;6.924;2022-07-06T08:57:19;19.50;99.90
43087;DHT22;28708;52.224;6.924;2022-07-06T08:59:45;19.30;99.90
43087;DHT22;28708;52.224;6.924;2022-07-06T09:02:11;21.20;99.90
43087;DHT22;28708;52.224;6.924;2022-07-06T09:04:39;22.20;99.90
43087;DHT22;28708;52.224;6.924;2022-07-06T09:07:07;21.70;99.90
43087;DHT22;28708;52.224;6.924;2022-07-06T09:09:33;22.10;99.90
43087;DHT22;28708;52.224;6.924;2022-07-06T09:11:59;21.80;99.90
43087;DHT22;28708;52.224;6.924;2022-07-06T09:14:25;20.90;99.90
43087;DHT22;28708;52.224;6.924;2022-07-06T09:16:52;20.80;99.90
43087;DHT22;28708;52.224;6.924;2022-07-06T09:19:28;20.60;99.90
43087;DHT22;28708;52.224;6.924;2022-07-06T09:21:54;20.00;99.90
43087;DHT22;28708;52.224;6.924;2022-07-06T09:24:20;19.70;99.90
43087;DHT22;28708;52.224;6.924;2022-07-06T09:26:47;19.90;99.90
43087;DHT22;28708;52.224;6.924;2022-07-06T09:29:13;21.00;99.90
43087;DHT22;28708;52.224;6.924;2022-07-06T09:31:40;22.30;99.90
43087;DHT22;28708;52.224;6.924;2022-07-06T09:34:07;23.50;95.50
43087;DHT22;28708;52.224;6.924;2022-07-06T09:36:43;23.80;91.90
43087;DHT22;28708;52.224;6.924;2022-07-06T09:39:25;23.50;91.60
43087;DHT22;28708;52.224;6.924;2022-07-06T09:41:53;22.90;94.20
43087;DHT22;28708;52.224;6.924;2022-07-06T09:44:26;21.50;95.40
43087;DHT22;28708;52.224;6.924;2022-07-06T09:46:55;20.80;99.90
43087;DHT22;28708;52.224;6.924;2022-07-06T09:49:24;19.80;99.90
43087;DHT22;28708;52.224;6.924;2022-07-06T09:51:52;19.50;99.90
43087;DHT22;28708;52.224;6.924;2022-07-06T09:54:18;19.30;99.90
43087;DHT22;28708;52.224;6.924;2022-07-06T09:56:46;19.40;99.90
43087;DHT22;28708;52.224;6.924;2022-07-06T09:59:17;20.50;99.90
43087;DHT22;28708;52.224;6.924;2022-07-06T10:01:43;21.10;99.90
43087;DHT22;28708;52.224;6.924;2022-07-06T10:04:11;22.80;99.30
43087;DHT22;28708;52.224;6.924;2022-07-06T10:06:41;22.80;97.90
43087;DHT22;28708;52.224;6.924;2022-07-06T10:09:09;23.00;93.30
43087;DHT22;28708;52.224;6.924;2022-07-06T10:11:39;22.20;96.10
43087;DHT22;28708;52.224;6.924;2022-07-06T10:14:06;23.00;94.30
43087;DHT22;28708;52.224;6.924;2022-07-06T10:16:35;24.40;90.20
43087;DHT22;28708;52.224;6.924;2022-07-06T10:19:07;24.90;85.80
43087;DHT22;28708;52.224;6.924;2022-07-06T10:21:38;26.10;81.90
43087;DHT22;28708;52.224;6.924;2022-07-06T10:24:06;26.50;76.20
43087;DHT22;28708;52.224;6.924;2022-07-06T10:26:33;26.80;73.10
43087;DHT22;28708;52.224;6.924;2022-07-06T10:29:01;26.80;69.80
43087;DHT22;28708;52.224;6.924;2022-07-06T10:31:28;25.50;69.30
43087;DHT22;28708;52.224;6.924;2022-07-06T10:33:56;25.10;74.40
43087;DHT22;28708;52.224;6.924;2022-07-06T10:36:23;24.10;74.80
43087;DHT22;28708;52.224;6.924;2022-07-06T10:38:51;23.10;80.20
43087;DHT22;28708;52.224;6.924;2022-07-06T10:41:32;22.30;85.00
43087;DHT22;28708;52.224;6.924;2022-07-06T10:43:58;21.20;90.60
43087;DHT22;28708;52.224;6.924;2022-07-06T10:46:39;20.60;97.60
43087;DHT22;28708;52.224;6.924;2022-07-06T10:49:15;20.20;99.90
43087;DHT22;28708;52.224;6.924;2022-07-06T10:51:41;19.80;99.90
43087;DHT22;28708;52.224;6.924;2022-07-06T10:54:09;19.70;99.90
43087;DHT22;28708;52.224;6.924;2022-07-06T10:56:40;19.50;99.90
43087;DHT22;28708;52.224;6.924;2022-07-06T10:59:12;19.80;99.90
43087;DHT22;28708;52.224;6.924;2022-07-06T11:01:38;19.80;99.90
43087;DHT22;28708;52.224;6.924;2022-07-06T11:04:06;20.30;99.90
43087;DHT22;28708;52.224;6.924;2022-07-06T11:06:35;20.60;99.90
43087;DHT22;28708;52.224;6.924;2022-07-06T11:09:06;20.90;99.90
43087;DHT22;28708;52.224;6.924;2022-07-06T11:14:11;22.30;98.20
43087;DHT22;28708;52.224;6.924;2022-07-06T11:16:59;23.40;95.00
43087;DHT22;28708;52.224;6.924;2022-07-06T11:19:28;23.50;89.30
43087;DHT22;28708;52.224;6.924;2022-07-06T11:22:10;23.80;86.70
43087;DHT22;28708;52.224;6.924;2022-07-06T11:24:40;24.00;83.60
43087;DHT22;28708;52.224;6.924;2022-07-06T11:27:07;23.90;81.80
43087;DHT22;28708;52.224;6.924;2022-07-06T11:29:34;23.20;87.80
43087;DHT22;28708;52.224;6.924;2022-07-06T11:32:02;22.50;88.00
43087;DHT22;28708;52.224;6.924;2022-07-06T11:34:40;21.60;90.20
43087;DHT22;28708;52.224;6.924;2022-07-06T11:37:11;21.50;92.20
43087;DHT22;28708;52.224;6.924;2022-07-06T11:39:39;21.40;93.90
43087;DHT22;28708;52.224;6.924;2022-07-06T11:42:06;21.00;94.50
43087;DHT22;28708;52.224;6.924;2022-07-06T11:44:34;20.80;95.60
43087;DHT22;28708;52.224;6.924;2022-07-06T11:47:01;20.40;98.20
43087;DHT22;28708;52.224;6.924;2022-07-06T11:49:30;20.40;98.30
43087;DHT22;28708;52.224;6.924;2022-07-06T11:51:57;20.50;99.90
43087;DHT22;28708;52.224;6.924;2022-07-06T11:54:24;20.60;99.90
43087;DHT22;28708;52.224;6.924;2022-07-06T11:56:52;20.60;99.90
43087;DHT22;28708;52.224;6.924;2022-07-06T11:59:49;20.50;99.90
43087;DHT22;28708;52.224;6.924;2022-07-06T12:02:17;20.80;99.90
43087;DHT22;28708;52.224;6.924;2022-07-06T12:04:44;21.10;99.90
43087;DHT22;28708;52.224;6.924;2022-07-06T12:07:11;21.40;99.90
43087;DHT22;28708;52.224;6.924;2022-07-06T12:09:44;21.80;99.50
43087;DHT22;28708;52.224;6.924;2022-07-06T12:12:11;22.00;95.10
43087;DHT22;28708;52.224;6.924;2022-07-06T12:14:38;22.00;94.90
43087;DHT22;28708;52.224;6.924;2022-07-06T12:17:09;22.10;94.60
43087;DHT22;28708;52.224;6.924;2022-07-06T12:19:36;21.70;92.00
43087;DHT22;28708;52.224;6.924;2022-07-06T12:22:03;21.30;94.50
43087;DHT22;28708;52.224;6.924;2022-07-06T12:24:32;21.80;92.80
43087;DHT22;28708;52.224;6.924;2022-07-06T12:27:05;21.60;92.10
43087;DHT22;28708;52.224;6.924;2022-07-06T12:29:35;21.50;94.20
43087;DHT22;28708;52.224;6.924;2022-07-06T12:32:00;21.40;96.70
43087;DHT22;28708;52.224;6.924;2022-07-06T12:34:28;21.40;93.80
43087;DHT22;28708;52.224;6.924;2022-07-06T12:36:59;21.30;93.60
43087;DHT22;28708;52.224;6.924;2022-07-06T12:39:28;21.30;93.30
43087;DHT22;28708;52.224;6.924;2022-07-06T12:41:58;20.90;95.10
43087;DHT22;28708;52.224;6.924;2022-07-06T12:44:27;21.00;95.30
43087;DHT22;28708;52.224;6.924;2022-07-06T12:47:06;21.30;96.70
43087;DHT22;28708;52.224;6.924;2022-07-06T12:49:33;21.60;94.40
43087;DHT22;28708;52.224;6.924;2022-07-06T12:54:41;22.00;93.60
43087;DHT22;28708;52.224;6.924;2022-07-06T12:57:11;21.70;93.00
43087;DHT22;28708;52.224;6.924;2022-07-06T12:59:42;21.50;92.50
43087;DHT22;28708;52.224;6.924;2022-07-06T13:02:16;21.30;92.20
43087;DHT22;28708;52.224;6.924;2022-07-06T13:04:42;21.10;92.70
43087;DHT22;28708;52.224;6.924;2022-07-06T13:07:18;20.90;92.30
43087;DHT22;28708;52.224;6.924;2022-07-06T13:09:47;20.90;94.30
43087;DHT22;28708;52.224;6.924;2022-07-06T13:12:13;20.90;94.10
43087;DHT22;28708;52.224;6.924;2022-07-06T13:14:38;20.90;95.20
43087;DHT22;28708;52.224;6.924;2022-07-06T13:17:04;21.00;96.70
43087;DHT22;28708;52.224;6.924;2022-07-06T13:19:30;20.60;95.10
43087;DHT22;28708;52.224;6.924;2022-07-06T13:21:56;20.50;95.50
43087;DHT22;28708;52.224;6.924;2022-07-06T13:24:22;20.60;95.50
43087;DHT22;28708;52.224;6.924;2022-07-06T13:26:48;20.70;94.60
43087;DHT22;28708;52.224;6.924;2022-07-06T13:29:14;20.80;95.80
43087;DHT22;28708;52.224;6.924;2022-07-06T13:31:40;20.80;95.50
43087;DHT22;28708;52.224;6.924;2022-07-06T13:34:07;20.80;94.60
43087;DHT22;28708;52.224;6.924;2022-07-06T13:36:34;20.80;93.80
43087;DHT22;28708;52.224;6.924;2022-07-06T13:39:00;21.10;93.70
43087;DHT22;28708;52.224;6.924;2022-07-06T13:41:26;21.60;93.00
43087;DHT22;28708;52.224;6.924;2022-07-06T13:43:52;21.50;93.80
43087;DHT22;28708;52.224;6.924;2022-07-06T13:46:18;21.50;92.90
43087;DHT22;28708;52.224;6.924;2022-07-06T13:48:44;21.20;92.70
43087;DHT22;28708;52.224;6.924;2022-07-06T13:51:10;21.50;92.40
43087;DHT22;28708;52.224;6.924;2022-07-06T13:53:36;21.90;92.90
43087;DHT22;28708;52.224;6.924;2022-07-06T13:56:02;21.90;91.20
43087;DHT22;28708;52.224;6.924;2022-07-06T13:58:28;21.90;92.00
43087;DHT22;28708;52.224;6.924;2022-07-06T14:00:54;21.90;93.10
43087;DHT22;28708;52.224;6.924;2022-07-06T14:03:20;22.00;90.30
43087;DHT22;28708;52.224;6.924;2022-07-06T14:05:47;22.20;90.00
43087;DHT22;28708;52.224;6.924;2022-07-06T14:08:13;22.40;89.50
43087;DHT22;28708;52.224;6.924;2022-07-06T14:10:38;22.20;87.50
43087;DHT22;28708;52.224;6.924;2022-07-06T14:13:04;22.00;89.70
43087;DHT22;28708;52.224;6.924;2022-07-06T14:15:30;21.90;90.60
43087;DHT22;28708;52.224;6.924;2022-07-06T14:17:56;21.80;90.90
43087;DHT22;28708;52.224;6.924;2022-07-06T14:20:22;21.50;91.10
43087;DHT22;28708;52.224;6.924;2022-07-06T14:22:48;21.40;90.80
43087;DHT22;28708;52.224;6.924;2022-07-06T14:25:14;21.50;91.10
43087;DHT22;28708;52.224;6.924;2022-07-06T14:27:40;21.70;90.70
43087;DHT22;28708;52.224;6.924;2022-07-06T14:30:06;21.80;90.00
43087;DHT22;28708;52.224;6.924;2022-07-06T14:32:32;22.70;88.30
43087;DHT22;28708;52.224;6.924;2022-07-06T14:34:58;22.90;83.60
43087;DHT22;28708;52.224;6.924;2022-07-06T14:37:24;22.40;83.80
43087;DHT22;28708;52.224;6.924;2022-07-06T14:39:49;22.20;84.60
43087;DHT22;28708;52.224;6.924;2022-07-06T14:42:16;22.40;90.50
43087;DHT22;28708;52.224;6.924;2022-07-06T14:44:42;22.30;87.80
43087;DHT22;28708;52.224;6.924;2022-07-06T14:47:08;22.30;88.00
43087;DHT22;28708;52.224;6.924;2022-07-06T14:49:34;22.50;83.70
43087;DHT22;28708;52.224;6.924;2022-07-06T14:52:00;22.80;85.70
43087;DHT22;28708;52.224;6.924;2022-07-06T14:54:26;22.60;81.80
43087;DHT22;28708;52.224;6.924;2022-07-06T14:56:52;22.50;83.30
43087;DHT22;28708;52.224;6.924;2022-07-06T14:59:18;22.40;83.40
43087;DHT22;28708;52.224;6.924;2022-07-06T15:01:45;22.30;84.80
43087;DHT22;28708;52.224;6.924;2022-07-06T15:04:11;22.30;85.70
43087;DHT22;28708;52.224;6.924;2022-07-06T15:06:37;22.20;85.80
43087;DHT22;28708;52.224;6.924;2022-07-06T15:09:03;21.90;84.80
43087;DHT22;28708;52.224;6.924;2022-07-06T15:11:33;21.50;85.70
43087;DHT22;28708;52.224;6.924;2022-07-06T15:13:59;21.50;87.50
43087;DHT22;28708;52.224;6.924;2022-07-06T15:16:25;21.60;88.60
43087;DHT22;28708;52.224;6.924;2022-07-06T15:18:51;21.70;86.80
43087;DHT22;28708;52.224;6.924;2022-07-06T15:21:17;22.20;87.90
43087;DHT22;28708;52.224;6.924;2022-07-06T15:23:43;22.30;85.70
43087;DHT22;28708;52.224;6.924;2022-07-06T15:26:09;22.20;85.30
43087;DHT22;28708;52.224;6.924;2022-07-06T15:28:35;22.00;86.10
43087;DHT22;28708;52.224;6.924;2022-07-06T15:31:01;22.00;87.10
43087;DHT22;28708;52.224;6.924;2022-07-06T15:33:27;22.00;86.40
43087;DHT22;28708;52.224;6.924;2022-07-06T15:35:53;22.00;89.80
43087;DHT22;28708;52.224;6.924;2022-07-06T15:38:19;21.90;86.90